createdAt,value
2019-04-30T00:01:00.673Z,101601.23
2019-04-30T00:03:31.902Z,101602.36
2019-04-30T00:05:58.606Z,101600.27
2019-04-30T00:08:29.839Z,101600.14
2019-04-30T00:10:55.534Z,101602.16
2019-04-30T00:13:22.458Z,101602.09
2019-04-30T00:15:52.700Z,101601.59
2019-04-30T00:18:17.833Z,101605.80
2019-04-30T00:20:45.359Z,101597.63
2019-04-30T00:23:13.120Z,101599.13
2019-04-30T00:25:39.781Z,101602.47
2019-04-30T00:28:08.766Z,101601.81
2019-04-30T00:30:39.338Z,101603.97
2019-04-30T00:33:05.803Z,101598.81
2019-04-30T00:35:35.408Z,101599.86
2019-04-30T00:38:01.988Z,101598.69
2019-04-30T00:40:30.218Z,101593.70
2019-04-30T00:43:00.116Z,101593.66
2019-04-30T00:45:39.958Z,101589.79
2019-04-30T00:48:27.916Z,101589.70
2019-04-30T00:50:52.085Z,101587.61
2019-04-30T00:53:18.975Z,101587.59
2019-04-30T00:55:48.457Z,101589.25
2019-04-30T00:58:17.732Z,101583.05
2019-04-30T01:00:52.314Z,101584.98
2019-04-30T01:03:22.688Z,101579.28
2019-04-30T01:05:49.350Z,101578.41
2019-04-30T01:08:16.132Z,101572.19
2019-04-30T01:10:42.822Z,101565.17
2019-04-30T01:13:11.938Z,101563.97
2019-04-30T01:15:39.082Z,101561.94
2019-04-30T01:18:05.959Z,101566.47
2019-04-30T01:20:33.018Z,101557.17
2019-04-30T01:23:03.207Z,101550.88
2019-04-30T01:25:28.878Z,101554.91
2019-04-30T01:27:58.525Z,101552.28
2019-04-30T01:30:25.587Z,101552.79
2019-04-30T01:32:56.775Z,101546.91
2019-04-30T01:35:23.898Z,101554.02
2019-04-30T01:37:49.853Z,101555.78
2019-04-30T01:40:18.804Z,101559.45
2019-04-30T01:42:48.550Z,101556.20
2019-04-30T01:45:14.516Z,101550.22
2019-04-30T01:47:41.303Z,101545.80
2019-04-30T01:50:09.253Z,101538.05
2019-04-30T01:52:54.274Z,101540.42
2019-04-30T01:55:33.646Z,101540.59
2019-04-30T01:58:25.982Z,101541.51
2019-04-30T02:01:03.194Z,101551.56
2019-04-30T02:03:29.848Z,101541.55
2019-04-30T02:05:56.914Z,101547.23
2019-04-30T02:08:23.669Z,101546.96
2019-04-30T02:10:51.411Z,101544.63
2019-04-30T02:13:18.882Z,101544.87
2019-04-30T02:15:45.778Z,101538.70
2019-04-30T02:18:12.489Z,101543.54
2019-04-30T02:20:39.295Z,101545.95
2019-04-30T02:23:09.684Z,101549.08
2019-04-30T02:25:36.809Z,101550.32
2019-04-30T02:28:03.493Z,101543.36
2019-04-30T02:30:31.032Z,101550.83
2019-04-30T02:33:00.561Z,101544.97
2019-04-30T02:35:43.627Z,101539.45
2019-04-30T02:38:20.120Z,101545.37
2019-04-30T02:40:46.575Z,101543.70
2019-04-30T02:43:13.766Z,101545.67
2019-04-30T02:45:41.280Z,101544.45
2019-04-30T02:48:11.489Z,101538.91
2019-04-30T02:50:39.353Z,101540.48
2019-04-30T02:53:29.266Z,101542.33
2019-04-30T02:55:56.019Z,101536.98
2019-04-30T02:58:22.957Z,101539.41
2019-04-30T03:00:49.724Z,101539.84
2019-04-30T03:03:16.406Z,101539.67
2019-04-30T03:05:43.280Z,101537.17
2019-04-30T03:08:09.966Z,101527.71
2019-04-30T03:10:36.662Z,101524.73
2019-04-30T03:13:03.499Z,101529.27
2019-04-30T03:15:30.273Z,101527.96
2019-04-30T03:18:13.029Z,101528.97
2019-04-30T03:20:53.916Z,101519.08
2019-04-30T03:23:20.714Z,101518.70
2019-04-30T03:25:49.983Z,101521.31
2019-04-30T03:28:15.974Z,101510.78
2019-04-30T03:30:42.850Z,101523.50
2019-04-30T03:33:12.854Z,101517.09
2019-04-30T03:35:46.588Z,101517.46
2019-04-30T03:38:09.452Z,101522.27
2019-04-30T03:40:35.626Z,101517.48
2019-04-30T03:43:03.627Z,101517.77
2019-04-30T03:45:30.525Z,101522.55
2019-04-30T03:47:59.615Z,101516.17
2019-04-30T03:50:25.892Z,101516.83
2019-04-30T03:52:52.612Z,101514.82
2019-04-30T03:55:20.605Z,101521.29
2019-04-30T03:57:51.679Z,101524.05
2019-04-30T04:00:33.583Z,101520.75
2019-04-30T04:03:00.282Z,101519.84
2019-04-30T04:05:52.873Z,101520.09
2019-04-30T04:08:43.236Z,101521.81
2019-04-30T04:11:16.381Z,101524.53
2019-04-30T04:13:43.078Z,101519.53
2019-04-30T04:16:09.943Z,101525.01
2019-04-30T04:18:36.885Z,101527.12
2019-04-30T04:21:11.321Z,101522.27
2019-04-30T04:23:32.980Z,101523.01
2019-04-30T04:25:59.777Z,101526.73
2019-04-30T04:28:29.754Z,101522.46
2019-04-30T04:30:56.329Z,101523.84
2019-04-30T04:33:23.022Z,101524.39
2019-04-30T04:35:50.152Z,101527.17
2019-04-30T04:38:16.921Z,101521.05
2019-04-30T04:40:43.688Z,101518.33
2019-04-30T04:43:10.616Z,101520.27
2019-04-30T04:45:40.503Z,101522.64
2019-04-30T04:48:06.157Z,101523.73
2019-04-30T04:50:32.925Z,101526.40
2019-04-30T04:52:59.716Z,101520.88
2019-04-30T04:55:26.404Z,101525.55
2019-04-30T04:57:53.179Z,101524.71
2019-04-30T05:00:20.176Z,101524.55
2019-04-30T05:02:55.923Z,101532.84
2019-04-30T05:05:22.756Z,101523.03
2019-04-30T05:07:49.441Z,101528.00
2019-04-30T05:10:16.233Z,101534.50
2019-04-30T05:12:43.003Z,101534.63
2019-04-30T05:15:10.462Z,101536.36
2019-04-30T05:17:39.334Z,101531.53
2019-04-30T05:20:06.870Z,101530.12
2019-04-30T05:22:33.654Z,101526.54
2019-04-30T05:25:00.350Z,101532.14
2019-04-30T05:27:28.044Z,101535.34
2019-04-30T05:29:54.733Z,101537.73
2019-04-30T05:32:21.400Z,101530.40
2019-04-30T05:34:50.001Z,101538.86
2019-04-30T05:37:18.391Z,101545.91
2019-04-30T05:39:45.286Z,101543.69
2019-04-30T05:42:12.069Z,101537.27
2019-04-30T05:44:39.584Z,101541.59
2019-04-30T05:47:06.381Z,101542.65
2019-04-30T05:49:33.157Z,101536.48
2019-04-30T05:51:59.860Z,101537.94
2019-04-30T05:54:26.681Z,101540.16
2019-04-30T05:56:53.466Z,101534.78
2019-04-30T05:59:20.690Z,101540.00
2019-04-30T06:01:48.672Z,101540.88
2019-04-30T06:04:19.388Z,101540.73
2019-04-30T06:06:46.157Z,101536.06
2019-04-30T06:09:31.011Z,101536.16
2019-04-30T06:12:07.799Z,101532.34
2019-04-30T06:14:48.803Z,101533.36
2019-04-30T06:17:19.559Z,101532.80
2019-04-30T06:19:46.110Z,101534.53
2019-04-30T06:22:12.887Z,101541.67
2019-04-30T06:24:39.861Z,101540.23
2019-04-30T06:27:06.751Z,101540.68
2019-04-30T06:29:33.961Z,101531.45
2019-04-30T06:32:00.877Z,101538.89
2019-04-30T06:34:29.464Z,101537.45
2019-04-30T06:36:57.118Z,101534.33
2019-04-30T06:39:24.064Z,101538.33
2019-04-30T06:41:51.538Z,101525.36
2019-04-30T06:44:19.529Z,101517.89
2019-04-30T06:46:48.653Z,101521.31
2019-04-30T06:49:15.406Z,101522.74
2019-04-30T06:51:42.202Z,101518.55
2019-04-30T06:54:11.083Z,101516.89
2019-04-30T06:56:38.758Z,101513.19
2019-04-30T06:59:05.632Z,101513.97
2019-04-30T07:01:32.388Z,101514.89
2019-04-30T07:04:01.012Z,101515.13
2019-04-30T07:06:32.324Z,101505.81
2019-04-30T07:09:21.926Z,101509.41
2019-04-30T07:11:59.274Z,101514.94
2019-04-30T07:14:26.305Z,101513.66
2019-04-30T07:16:53.068Z,101511.44
2019-04-30T07:19:31.865Z,101508.44
2019-04-30T07:21:49.644Z,101512.54
2019-04-30T07:24:16.542Z,101507.78
2019-04-30T07:26:43.333Z,101508.76
2019-04-30T07:29:10.119Z,101506.61
2019-04-30T07:31:39.130Z,101505.69
2019-04-30T07:34:05.560Z,101504.22
2019-04-30T07:36:45.310Z,101506.20
2019-04-30T07:39:01.037Z,101504.84
2019-04-30T07:41:30.884Z,101511.05
2019-04-30T07:43:56.863Z,101479.30
2019-04-30T07:46:23.527Z,101479.30
2019-04-30T07:53:06.364Z,101504.64
2019-04-30T07:55:31.671Z,101501.25
2019-04-30T07:57:59.140Z,101509.20
2019-04-30T08:00:26.177Z,101518.35
2019-04-30T08:03:04.861Z,101517.17
2019-04-30T08:05:40.142Z,101508.55
2019-04-30T08:08:17.709Z,101510.84
2019-04-30T08:10:34.978Z,101508.83
2019-04-30T08:13:10.065Z,101506.39
2019-04-30T08:15:30.405Z,101510.69
2019-04-30T08:18:03.658Z,101504.78
2019-04-30T08:20:26.056Z,101504.70
2019-04-30T08:22:52.734Z,101509.44
2019-04-30T08:25:21.909Z,101514.64
2019-04-30T08:27:49.255Z,101512.45
2019-04-30T08:30:23.949Z,101518.20
2019-04-30T08:32:44.901Z,101519.84
2019-04-30T08:35:12.478Z,101524.59
2019-04-30T08:37:39.162Z,101519.34
2019-04-30T08:40:06.158Z,101526.62
2019-04-30T08:42:34.273Z,101520.38
2019-04-30T08:45:01.616Z,101518.53
2019-04-30T08:47:29.136Z,101518.53
2019-04-30T08:49:55.873Z,101518.30
2019-04-30T08:52:22.737Z,101525.20
2019-04-30T08:54:49.713Z,101525.06
2019-04-30T08:57:18.888Z,101525.11
2019-04-30T08:59:45.163Z,101522.97
2019-04-30T09:02:15.846Z,101517.44
2019-04-30T09:04:40.405Z,101521.09
2019-04-30T09:07:10.128Z,101517.56
2019-04-30T09:09:35.801Z,101513.50
2019-04-30T09:12:02.482Z,101520.66
2019-04-30T09:14:29.867Z,101512.98
2019-04-30T09:16:56.758Z,101509.21
2019-04-30T09:19:23.470Z,101515.44
2019-04-30T09:21:51.202Z,101512.86
2019-04-30T09:24:19.119Z,101514.63
2019-04-30T09:26:49.090Z,101514.86
2019-04-30T09:29:15.494Z,101506.70
2019-04-30T09:31:42.288Z,101499.41
2019-04-30T09:34:17.077Z,101500.12
2019-04-30T09:36:39.168Z,101500.31
2019-04-30T09:39:06.169Z,101498.08
2019-04-30T09:41:33.533Z,101509.75
2019-04-30T09:44:00.571Z,101501.76
2019-04-30T09:46:29.827Z,101504.27
2019-04-30T09:48:56.027Z,101501.22
2019-04-30T09:51:24.692Z,101498.22
2019-04-30T09:53:59.237Z,101491.69
2019-04-30T09:56:20.955Z,101492.89
2019-04-30T09:58:49.256Z,101496.42
2019-04-30T10:01:15.993Z,101492.13
2019-04-30T10:03:43.196Z,101492.84
2019-04-30T10:06:10.165Z,101490.94
2019-04-30T10:08:47.889Z,101487.28
2019-04-30T10:11:28.086Z,101493.48
2019-04-30T10:13:54.772Z,101491.69
2019-04-30T10:16:31.489Z,101492.00
2019-04-30T10:18:59.248Z,101490.23
2019-04-30T10:21:28.913Z,101479.73
2019-04-30T10:24:10.280Z,101481.81
2019-04-30T10:26:24.487Z,101481.91
2019-04-30T10:28:51.677Z,101476.92
2019-04-30T10:31:18.771Z,101477.47
2019-04-30T10:33:48.548Z,101465.66
2019-04-30T10:36:15.445Z,101465.89
2019-04-30T10:38:42.424Z,101470.63
2019-04-30T10:41:09.206Z,101460.73
2019-04-30T10:43:35.876Z,101456.26
2019-04-30T10:46:02.789Z,101449.02
2019-04-30T10:48:29.594Z,101452.42
2019-04-30T10:50:56.368Z,101440.18
2019-04-30T10:53:23.084Z,101451.48
2019-04-30T10:55:49.860Z,101448.76
2019-04-30T10:58:16.553Z,101449.14
2019-04-30T11:00:43.849Z,101445.47
2019-04-30T11:03:19.169Z,101443.73
2019-04-30T11:05:41.266Z,101441.92
2019-04-30T11:08:08.294Z,101444.92
2019-04-30T11:10:35.070Z,101442.02
2019-04-30T11:13:01.998Z,101435.75
2019-04-30T11:15:29.322Z,101435.20
2019-04-30T11:17:56.195Z,101433.61
2019-04-30T11:20:23.448Z,101434.06
2019-04-30T11:22:50.702Z,101429.33
2019-04-30T11:25:19.604Z,101429.30
2019-04-30T11:27:46.770Z,101431.97
2019-04-30T11:30:23.333Z,101427.55
2019-04-30T11:32:43.434Z,101424.80
2019-04-30T11:35:10.770Z,101423.86
2019-04-30T11:37:37.654Z,101428.91
2019-04-30T11:40:04.601Z,101422.09
2019-04-30T11:42:32.381Z,101416.11
2019-04-30T11:44:59.140Z,101412.94
2019-04-30T11:47:30.252Z,101411.88
2019-04-30T11:49:57.049Z,101405.46
2019-04-30T11:52:25.147Z,101400.17
2019-04-30T11:54:54.468Z,101404.20
2019-04-30T11:57:20.830Z,101396.44
2019-04-30T11:59:47.980Z,101402.46
2019-04-30T12:02:21.199Z,101391.88
2019-04-30T12:04:49.449Z,101398.98
2019-04-30T12:07:24.220Z,101394.14
2019-04-30T12:09:59.567Z,101390.45
2019-04-30T12:12:26.258Z,101387.98
2019-04-30T12:14:52.922Z,101393.89
2019-04-30T12:17:19.853Z,101401.77
2019-04-30T12:19:48.847Z,101396.73
2019-04-30T12:22:16.062Z,101394.14
2019-04-30T12:24:42.871Z,101399.06
2019-04-30T12:27:09.637Z,101386.78
2019-04-30T12:29:36.389Z,101383.73
2019-04-30T12:32:04.368Z,101394.06
2019-04-30T12:34:31.087Z,101385.66
2019-04-30T12:36:59.649Z,101385.45
2019-04-30T12:39:29.798Z,101378.84
2019-04-30T12:41:55.587Z,101381.94
2019-04-30T12:44:22.504Z,101379.80
2019-04-30T12:46:49.213Z,101380.84
2019-04-30T12:49:15.906Z,101380.77
2019-04-30T12:52:02.403Z,101377.77
2019-04-30T12:54:36.986Z,101375.98
2019-04-30T12:57:15.962Z,101368.44
2019-04-30T12:59:42.691Z,101380.03
2019-04-30T13:02:09.466Z,101374.56
2019-04-30T13:04:36.361Z,101374.78
2019-04-30T13:07:03.820Z,101371.56
2019-04-30T13:09:31.804Z,101372.43
2019-04-30T13:12:00.579Z,101378.94
2019-04-30T13:14:29.751Z,101370.55
2019-04-30T13:16:56.113Z,101358.19
2019-04-30T13:19:22.803Z,101365.20
2019-04-30T13:21:49.590Z,101357.85
2019-04-30T13:24:16.348Z,101356.30
2019-04-30T13:26:43.055Z,101352.20
2019-04-30T13:29:15.801Z,101351.23
2019-04-30T13:31:42.504Z,101349.94
2019-04-30T13:34:29.852Z,101347.25
2019-04-30T13:36:56.231Z,101349.31
2019-04-30T13:39:29.295Z,101349.48
2019-04-30T13:42:00.233Z,101347.14
2019-04-30T13:44:35.793Z,101345.78
2019-04-30T13:47:03.585Z,101348.38
2019-04-30T13:49:30.331Z,101346.47
2019-04-30T13:51:58.069Z,101347.45
2019-04-30T13:54:24.766Z,101345.41
2019-04-30T13:56:51.553Z,101337.66
2019-04-30T13:59:18.465Z,101349.16
2019-04-30T14:01:45.342Z,101339.63
2019-04-30T14:04:33.925Z,101342.27
2019-04-30T14:07:10.622Z,101337.02
2019-04-30T14:09:37.404Z,101332.66
2019-04-30T14:12:04.197Z,101342.14
2019-04-30T14:14:30.893Z,101335.95
2019-04-30T14:16:58.673Z,101333.48
2019-04-30T14:19:26.345Z,101332.05
2019-04-30T14:21:53.027Z,101326.75
2019-04-30T14:24:19.819Z,101325.92
2019-04-30T14:26:46.603Z,101318.75
2019-04-30T14:29:13.407Z,101317.77
2019-04-30T14:31:40.158Z,101320.89
2019-04-30T14:34:06.982Z,101312.61
2019-04-30T14:36:33.673Z,101319.62
2019-04-30T14:39:13.752Z,101318.17
2019-04-30T14:41:32.440Z,101315.41
2019-04-30T14:44:09.739Z,101317.83
2019-04-30T14:46:47.081Z,101309.72
2019-04-30T14:49:40.702Z,101308.03
2019-04-30T14:52:09.368Z,101311.63
2019-04-30T14:54:58.778Z,101311.59
2019-04-30T14:57:51.068Z,101312.36
2019-04-30T15:00:39.582Z,101313.45
2019-04-30T15:03:09.499Z,101311.55
2019-04-30T15:05:40.615Z,101311.83
2019-04-30T15:08:05.168Z,101309.39
2019-04-30T15:10:31.955Z,101303.28
2019-04-30T15:13:00.206Z,101300.14
2019-04-30T15:15:29.228Z,101306.02
2019-04-30T15:17:56.036Z,101304.49
2019-04-30T15:20:22.822Z,101313.57
2019-04-30T15:22:59.774Z,101303.55
2019-04-30T15:25:34.070Z,101295.00
2019-04-30T15:27:55.057Z,101299.14
2019-04-30T15:30:22.023Z,101295.64
2019-04-30T15:32:51.202Z,101292.97
2019-04-30T15:35:19.629Z,101301.39
2019-04-30T15:37:48.832Z,101296.69
2019-04-30T15:40:15.738Z,101289.87
2019-04-30T15:42:44.529Z,101294.48
2019-04-30T15:45:12.652Z,101295.39
2019-04-30T15:47:39.415Z,101293.57
2019-04-30T15:50:06.213Z,101292.09
2019-04-30T15:52:32.990Z,101286.62
2019-04-30T15:54:59.770Z,101286.11
2019-04-30T15:57:26.552Z,101294.31
2019-04-30T15:59:53.255Z,101291.19
2019-04-30T16:02:53.489Z,101282.06
2019-04-30T16:05:29.464Z,101280.50
2019-04-30T16:08:05.165Z,101282.41
2019-04-30T16:11:08.194Z,101273.61
2019-04-30T16:13:54.749Z,101281.00
2019-04-30T16:16:22.938Z,101283.53
2019-04-30T16:18:49.943Z,101274.76
2019-04-30T16:21:16.724Z,101281.87
2019-04-30T16:23:43.400Z,101276.44
2019-04-30T16:26:10.162Z,101276.34
2019-04-30T16:28:38.978Z,101277.29
2019-04-30T16:31:05.786Z,101282.81
2019-04-30T16:33:32.563Z,101276.23
2019-04-30T16:36:01.405Z,101280.19
2019-04-30T16:38:28.984Z,101278.84
2019-04-30T16:40:55.869Z,101282.48
2019-04-30T16:43:22.680Z,101278.22
2019-04-30T16:45:49.752Z,101280.69
2019-04-30T16:48:19.287Z,101274.78
2019-04-30T16:50:46.060Z,101274.36
2019-04-30T16:53:12.810Z,101274.80
2019-04-30T16:55:39.582Z,101261.88
2019-04-30T16:58:06.280Z,101270.28
2019-04-30T17:00:33.568Z,101276.00
2019-04-30T17:03:05.017Z,101267.78
2019-04-30T17:05:40.196Z,101273.17
2019-04-30T17:08:16.213Z,101269.89
2019-04-30T17:10:50.542Z,101273.98
2019-04-30T17:13:23.224Z,101264.48
2019-04-30T17:15:52.045Z,101266.22
2019-04-30T17:18:19.168Z,101255.64
2019-04-30T17:20:49.262Z,101252.58
2019-04-30T17:23:19.296Z,101262.16
2019-04-30T17:25:49.250Z,101259.36
2019-04-30T17:28:21.004Z,101261.41
2019-04-30T17:30:49.281Z,101264.47
2019-04-30T17:33:17.365Z,101259.00
2019-04-30T17:35:45.498Z,101263.08
2019-04-30T17:38:13.523Z,101260.61
2019-04-30T17:40:41.542Z,101263.45
2019-04-30T17:43:08.329Z,101264.52
2019-04-30T17:45:35.116Z,101262.91
2019-04-30T17:48:01.961Z,101264.64
2019-04-30T17:50:29.569Z,101264.18
2019-04-30T17:52:56.311Z,101265.27
2019-04-30T17:55:23.035Z,101264.83
2019-04-30T17:57:49.811Z,101257.47
2019-04-30T18:00:21.631Z,101264.55
2019-04-30T18:02:45.544Z,101264.48
2019-04-30T18:05:12.789Z,101260.48
2019-04-30T18:07:39.979Z,101265.66
2019-04-30T18:10:09.172Z,101258.28
2019-04-30T18:12:36.082Z,101258.13
2019-04-30T18:15:04.126Z,101249.60
2019-04-30T18:17:31.593Z,101192.95
2019-04-30T18:20:13.557Z,101255.02
2019-04-30T18:22:59.969Z,101260.47
2019-04-30T18:25:40.225Z,101257.56
2019-04-30T18:28:09.166Z,101248.67
2019-04-30T18:30:38.969Z,101252.53
2019-04-30T18:33:06.088Z,101258.75
2019-04-30T18:35:34.083Z,101256.50
2019-04-30T18:38:01.243Z,101255.56
2019-04-30T18:40:29.603Z,101246.03
2019-04-30T18:42:56.493Z,101252.06
2019-04-30T18:45:23.495Z,101248.48
2019-04-30T18:47:50.207Z,101251.00
2019-04-30T18:50:18.939Z,101246.94
2019-04-30T18:52:50.330Z,101249.75
2019-04-30T18:55:15.629Z,101247.34
2019-04-30T18:57:42.433Z,101252.73
2019-04-30T19:00:09.977Z,101252.26
2019-04-30T19:02:38.351Z,101250.60
2019-04-30T19:05:09.525Z,101252.60
2019-04-30T19:11:23.341Z,101252.50
2019-04-30T19:14:13.881Z,101253.78
2019-04-30T19:17:02.905Z,101256.22
2019-04-30T19:19:42.463Z,101251.68
2019-04-30T19:22:09.606Z,101253.21
2019-04-30T19:24:36.682Z,101255.22
2019-04-30T19:27:03.533Z,101251.25
2019-04-30T19:29:30.202Z,101253.45
2019-04-30T19:31:57.026Z,101247.37
2019-04-30T19:34:23.728Z,101244.44
2019-04-30T19:36:50.630Z,101245.19
2019-04-30T19:39:19.499Z,101249.63
2019-04-30T19:41:46.546Z,101248.36
2019-04-30T19:44:13.235Z,101250.61
2019-04-30T19:46:41.439Z,101255.30
2019-04-30T19:49:09.848Z,101250.97
2019-04-30T19:51:36.728Z,101253.31
2019-04-30T19:54:03.710Z,101254.05
2019-04-30T19:56:32.862Z,101253.87
2019-04-30T19:59:02.915Z,101258.34
2019-04-30T20:01:28.703Z,101259.02
2019-04-30T20:03:55.521Z,101262.72
2019-04-30T20:06:22.326Z,101262.72
2019-04-30T20:08:49.315Z,101258.55
2019-04-30T20:11:16.116Z,101263.98
2019-04-30T20:13:42.904Z,101263.98
2019-04-30T20:16:10.143Z,101261.12
2019-04-30T20:18:38.995Z,101255.42
2019-04-30T20:21:09.938Z,101259.40
2019-04-30T20:23:37.465Z,101255.23
2019-04-30T20:26:04.241Z,101255.23
2019-04-30T20:28:39.124Z,101250.70
2019-04-30T20:31:00.061Z,101252.36
2019-04-30T20:33:28.895Z,101249.61
2019-04-30T20:35:55.305Z,101244.34
2019-04-30T20:38:32.268Z,101253.06
2019-04-30T20:41:02.796Z,101258.41
2019-04-30T20:43:28.535Z,101251.17
2019-04-30T20:45:55.422Z,101248.97
2019-04-30T20:48:22.185Z,101248.82
2019-04-30T20:50:48.865Z,101248.82
2019-04-30T20:53:19.674Z,101246.31
2019-04-30T20:55:46.258Z,101241.14
2019-04-30T20:58:13.693Z,101245.61
2019-04-30T21:00:40.461Z,101245.61
2019-04-30T21:03:09.553Z,101242.39
2019-04-30T21:05:36.193Z,101239.58
2019-04-30T21:08:04.057Z,101242.14
2019-04-30T21:10:30.725Z,101231.91
2019-04-30T21:12:57.392Z,101240.37
2019-04-30T21:15:24.198Z,101241.31
2019-04-30T21:17:50.867Z,101238.60
2019-04-30T21:20:19.361Z,101240.83
2019-04-30T21:22:46.366Z,101238.40
2019-04-30T21:25:13.815Z,101231.56
2019-04-30T21:27:40.605Z,101232.29
2019-04-30T21:30:07.522Z,101230.41
2019-04-30T21:32:52.514Z,101222.97
2019-04-30T21:35:43.852Z,101225.77
2019-04-30T21:38:10.642Z,101212.45
2019-04-30T21:40:39.309Z,101207.50
2019-04-30T21:43:06.061Z,101210.72
2019-04-30T21:45:32.745Z,101207.34
2019-04-30T21:48:01.502Z,101210.73
2019-04-30T21:50:29.637Z,101210.11
2019-04-30T21:52:56.603Z,101205.73
2019-04-30T21:55:23.262Z,101201.73
2019-04-30T21:57:49.948Z,101199.28
2019-04-30T22:00:25.023Z,101206.55
2019-04-30T22:02:53.703Z,101199.53
2019-04-30T22:05:20.710Z,101203.52
2019-04-30T22:07:48.617Z,101202.70
2019-04-30T22:10:15.765Z,101209.21
2019-04-30T22:12:42.450Z,101202.95
2019-04-30T22:15:12.813Z,101201.75
2019-04-30T22:17:39.493Z,101203.39
2019-04-30T22:20:07.863Z,101200.41
2019-04-30T22:22:35.066Z,101205.55
2019-04-30T22:25:02.009Z,101202.28
2019-04-30T22:27:29.665Z,101198.10
2019-04-30T22:29:56.372Z,101197.37
2019-04-30T22:32:24.529Z,101194.03
2019-04-30T22:34:53.101Z,101185.23
2019-04-30T22:37:20.110Z,101180.81
2019-04-30T22:39:52.949Z,101189.22
2019-04-30T22:42:39.718Z,101194.09
2019-04-30T22:45:27.049Z,101196.84
2019-04-30T22:47:53.831Z,101185.72
2019-04-30T22:50:20.603Z,101187.35
2019-04-30T22:52:47.289Z,101184.71
2019-04-30T22:55:14.163Z,101179.55
2019-04-30T22:57:40.872Z,101182.87
2019-04-30T23:00:11.045Z,101188.52
2019-04-30T23:03:05.060Z,101178.20
2019-04-30T23:08:14.566Z,101175.56
2019-04-30T23:10:41.242Z,101182.12
2019-04-30T23:13:08.028Z,101175.13
2019-04-30T23:15:35.010Z,101168.81
2019-04-30T23:18:01.801Z,101172.33
2019-04-30T23:20:28.886Z,101171.38
2019-04-30T23:22:55.575Z,101163.56
2019-04-30T23:25:22.264Z,101167.08
2019-04-30T23:27:48.928Z,101157.36
2019-04-30T23:30:16.361Z,101161.12
2019-04-30T23:32:43.017Z,101157.61
2019-04-30T23:35:10.116Z,101149.86
2019-04-30T23:37:37.510Z,101146.64
2019-04-30T23:40:27.017Z,101141.63
2019-04-30T23:42:54.156Z,101143.97
2019-04-30T23:45:21.063Z,101141.34
2019-04-30T23:47:47.927Z,101139.84
2019-04-30T23:50:14.748Z,101141.91
2019-04-30T23:52:41.416Z,101138.27
2019-04-30T23:55:08.193Z,101136.62
2019-04-30T23:57:34.974Z,101129.35
